Time;durP1;ratioP1;P1;durP2;ratioP2;P2;SDS_P1;SDS_P2;PMS_P1;PMS_P2;Temp;Humidity;BMP_temperature;BMP_pressure;BME280_temperature;BME280_humidity;BME280_pressure;Samples;Min_cycle;Max_cycle;Signal;HPM_P1;HPM_P2
2022/10/05 00:00:48;;;;;;;;;;;;;;;;;;5025636;28;19930;-34
2022/10/05 00:03:13;;;;;;;;;;;;;;;;;;5022899;28;19999;-34
2022/10/05 00:05:38;;;;;;;;;;;;;;;;;;5025393;28;19913;-35
2022/10/05 00:08:03;;;;;;;;;;;;;;;;;;5025622;28;19913;-34
2022/10/05 00:10:29;;;;;;;;;;;;;;;;;;5025879;28;19917;-34
2022/10/05 00:12:54;;;;;;;;;;;;;;;;;;5026231;28;20083;-34
2022/10/05 00:15:19;;;;;;;;;;;;;;;;;;5025660;28;20305;-34
2022/10/05 00:17:44;;;;;;;;;;;;;;;;;;5024393;28;19913;-35
2022/10/05 00:20:09;;;;;;;;;;;;;;;;;;5026583;28;20070;-34
2022/10/05 00:22:34;;;;;;;;;;;;;;;;;;5023472;28;19917;-34
2022/10/05 00:25:00;;;;;;;;;;;;;;;;;;5023351;28;19925;-34
2022/10/05 00:27:25;;;;;;;;;;;;;;;;;;5024800;28;19913;-34
2022/10/05 00:29:50;;;;;;;;;;;;;;;;;;5024765;28;19999;-34
2022/10/05 00:32:15;;;;;;;;;;;;;;;;;;5025702;28;19924;-34
2022/10/05 00:34:40;;;;;;;;;;;;;;;;;;5023248;28;20000;-34
2022/10/05 00:37:05;;;;;;;;;;;;;;;;;;5025354;28;19917;-34
2022/10/05 00:39:31;;;;;;;;;;;;;;;;;;5022494;28;20378;-34
2022/10/05 00:41:56;;;;;;;;;;;;;;;;;;5020982;28;19932;-34
2022/10/05 00:44:21;;;;;;;;;;;;;;;;;;5022840;28;20336;-34
2022/10/05 00:46:46;;;;;;;;;;;;;;;;;;5023392;28;19917;-34
2022/10/05 00:49:11;;;;;;;;;;;;;;;;;;5024447;28;19935;-34
2022/10/05 00:51:36;;;;;;;;;;;;;;;;;;5023105;28;19967;-34
2022/10/05 00:54:01;;;;;;;;;;;;;;;;;;5024071;28;19914;-34
2022/10/05 00:56:27;;;;;;;;;;;;;;;;;;5020912;28;19952;-34
2022/10/05 00:58:52;;;;;;;;;;;;;;;;;;5024938;28;19913;-34
2022/10/05 01:01:17;;;;;;;;;;;;;;;;;;5022961;28;19975;-34
2022/10/05 01:03:42;;;;;;;;;;;;;;;;;;5023864;28;19932;-34
2022/10/05 01:06:07;;;;;;;;;;;;;;;;;;5025609;28;20413;-34
2022/10/05 01:08:32;;;;;;;;;;;;;;;;;;5024344;28;19924;-34
2022/10/05 01:10:57;;;;;;;;;;;;;;;;;;5018975;28;19921;-34
2022/10/05 01:13:23;;;;;;;;;;;;;;;;;;5023605;28;20338;-34
2022/10/05 01:15:48;;;;;;;;;;;;;;;;;;5020464;28;19917;-35
2022/10/05 01:18:13;;;;;;;;;;;;;;;;;;5023955;28;19920;-34
2022/10/05 01:20:38;;;;;;;;;;;;;;;;;;5023021;28;19921;-34
2022/10/05 01:23:03;;;;;;;;;;;;;;;;;;5021737;28;19917;-34
2022/10/05 01:25:28;;;;;;;;;;;;;;;;;;5024843;28;19913;-34
2022/10/05 01:27:53;;;;;;;;;;;;;;;;;;5023287;28;19913;-34
2022/10/05 01:30:19;;;;;;;;;;;;;;;;;;5024351;28;19921;-34
2022/10/05 01:32:44;;;;;;;;;;;;;;;;;;5021174;28;19921;-34
2022/10/05 01:35:09;;;;;;;;;;;;;;;;;;5020398;28;20024;-34
2022/10/05 01:37:34;;;;;;;;;;;;;;;;;;5021371;28;20072;-34
2022/10/05 01:39:59;;;;;;;;;;;;;;;;;;5023590;28;20401;-34
2022/10/05 01:42:24;;;;;;;;;;;;;;;;;;5023035;28;20294;-34
2022/10/05 01:44:50;;;;;;;;;;;;;;;;;;5023856;28;19920;-35
2022/10/05 01:47:15;;;;;;;;;;;;;;;;;;5023970;28;19913;-34
2022/10/05 01:49:40;;;;;;;;;;;;;;;;;;5016021;28;20313;-34
2022/10/05 01:52:05;;;;;;;;;;;;;;;;;;5018884;28;20055;-34
2022/10/05 01:54:30;;;;;;;;;;;;;;;;;;5013025;28;19921;-34
2022/10/05 01:56:55;;;;;;;;;;;;;;;;;;5014997;28;19921;-34
2022/10/05 01:59:21;;;;;;;;;;;;;;;;;;5017302;28;20446;-34
2022/10/05 02:01:46;;;;;;;;;;;;;;;;;;5016582;28;19921;-34
2022/10/05 02:04:11;;;;;;;;;;;;;;;;;;5021297;28;19964;-34
2022/10/05 02:06:36;;;;;;;;;;;;;;;;;;5022319;28;20337;-34
2022/10/05 02:09:01;;;;;;;;;;;;;;;;;;5018984;28;19925;-34
2022/10/05 02:11:26;;;;;;;;;;;;;;;;;;5022228;28;20394;-34
2022/10/05 02:13:52;;;;;;;;;;;;;;;;;;5021714;28;19913;-34
2022/10/05 02:16:17;;;;;;;;;;;;;;;;;;5017397;28;19917;-34
2022/10/05 02:18:42;;;;;;;;;;;;;;;;;;5025127;28;19944;-34
2022/10/05 02:21:07;;;;;;;;;;;;;;;;;;5023448;28;19940;-35
2022/10/05 02:23:32;;;;;;;;;;;;;;;;;;5021763;28;20004;-34
2022/10/05 02:25:58;;;;;;;;;;;;;;;;;;5023979;28;20012;-33
2022/10/05 02:28:23;;;;;;;;;;;;;;;;;;5025583;28;20374;-34
2022/10/05 02:30:48;;;;;;;;;;;;;;;;;;5026669;28;19913;-34
2022/10/05 02:33:13;;;;;;;;;;;;;;;;;;5027914;28;19913;-35
2022/10/05 02:35:38;;;;;;;;;;;;;;;;;;5027564;28;19927;-34
2022/10/05 02:38:04;;;;;;;;;;;;;;;;;;5027264;28;19930;-34
2022/10/05 02:40:29;;;;;;;;;;;;;;;;;;5028811;28;19924;-34
2022/10/05 02:42:54;;;;;;;;;;;;;;;;;;5027734;28;19967;-34
2022/10/05 02:45:19;;;;;;;;;;;;;;;;;;5028595;28;19917;-34
2022/10/05 02:47:44;;;;;;;;;;;;;;;;;;5027842;28;20400;-34
2022/10/05 02:50:09;;;;;;;;;;;;;;;;;;5028661;28;19924;-34
2022/10/05 02:52:34;;;;;;;;;;;;;;;;;;5025652;28;19950;-34
2022/10/05 02:55:00;;;;;;;;;;;;;;;;;;5025698;28;19990;-35
2022/10/05 02:57:25;;;;;;;;;;;;;;;;;;5028029;28;19913;-34
2022/10/05 02:59:50;;;;;;;;;;;;;;;;;;5027805;28;20428;-34
2022/10/05 03:02:15;;;;;;;;;;;;;;;;;;5025639;28;19920;-34
2022/10/05 03:04:40;;;;;;;;;;;;;;;;;;5027142;28;20011;-34
2022/10/05 03:07:05;;;;;;;;;;;;;;;;;;5027416;28;20367;-34
2022/10/05 03:09:30;;;;;;;;;;;;;;;;;;5027609;28;19913;-34
2022/10/05 03:11:56;;;;;;;;;;;;;;;;;;5027529;28;19929;-34
2022/10/05 03:14:21;;;;;;;;;;;;;;;;;;5028343;28;19945;-33
2022/10/05 03:16:46;;;;;;;;;;;;;;;;;;5025490;28;19917;-33
2022/10/05 03:19:11;;;;;;;;;;;;;;;;;;5028695;28;20325;-34
2022/10/05 03:21:36;;;;;;;;;;;;;;;;;;5026925;28;19920;-34
2022/10/05 03:24:01;;;;;;;;;;;;;;;;;;5027126;28;19917;-34
2022/10/05 03:26:27;;;;;;;;;;;;;;;;;;5027629;28;19913;-34
2022/10/05 03:28:52;;;;;;;;;;;;;;;;;;5028405;28;19917;-34
2022/10/05 03:31:17;;;;;;;;;;;;;;;;;;5024809;28;19928;-34
2022/10/05 03:33:42;;;;;;;;;;;;;;;;;;5024926;28;19921;-35
2022/10/05 03:36:07;;;;;;;;;;;;;;;;;;5021305;28;19927;-34
2022/10/05 03:38:32;;;;;;;;;;;;;;;;;;5026545;28;19970;-34
2022/10/05 03:40:58;;;;;;;;;;;;;;;;;;5022706;28;20994;-33
2022/10/05 03:43:23;;;;;;;;;;;;;;;;;;5024892;28;19913;-34
2022/10/05 03:45:48;;;;;;;;;;;;;;;;;;5024749;28;19916;-34
2022/10/05 03:48:13;;;;;;;;;;;;;;;;;;5025536;28;19996;-34
2022/10/05 03:50:39;;;;;;;;;;;;;;;;;;5025808;28;19913;-34
2022/10/05 03:53:04;;;;;;;;;;;;;;;;;;5026688;28;20134;-34
2022/10/05 03:55:29;;;;;;;;;;;;;;;;;;5026901;28;19959;-34
2022/10/05 03:57:54;;;;;;;;;;;;;;;;;;5023629;28;19917;-34
2022/10/05 04:00:22;;;;;;;;;;;;;;;;;;5024920;28;20378;-34
2022/10/05 04:02:47;;;;;;;;;;;;;;;;;;5022700;28;20402;-34
2022/10/05 04:05:13;;;;;;;;;;;;;;;;;;5025656;28;19956;-34
2022/10/05 04:07:38;;;;;;;;;;;;;;;;;;5025987;28;19913;-34
2022/10/05 04:10:03;;;;;;;;;;;;;;;;;;5025596;28;19921;-34
2022/10/05 04:12:28;;;;;;;;;;;;;;;;;;5024448;28;20379;-34
2022/10/05 04:14:53;;;;;;;;;;;;;;;;;;5024831;28;19921;-34
2022/10/05 04:17:18;;;;;;;;;;;;;;;;;;5026532;28;19921;-34
2022/10/05 04:19:44;;;;;;;;;;;;;;;;;;5020920;28;19928;-34
2022/10/05 04:22:09;;;;;;;;;;;;;;;;;;5026090;28;20012;-34
2022/10/05 04:24:34;;;;;;;;;;;;;;;;;;5025154;28;21149;-34
2022/10/05 04:26:59;;;;;;;;;;;;;;;;;;5025512;28;19928;-34
2022/10/05 04:29:24;;;;;;;;;;;;;;;;;;5025607;28;20047;-34
2022/10/05 04:31:49;;;;;;;;;;;;;;;;;;5024851;28;19927;-34
2022/10/05 04:34:15;;;;;;;;;;;;;;;;;;5026108;28;19966;-34
2022/10/05 04:36:40;;;;;;;;;;;;;;;;;;5025441;28;19980;-34
2022/10/05 04:39:05;;;;;;;;;;;;;;;;;;5024507;28;19913;-34
2022/10/05 04:41:30;;;;;;;;;;;;;;;;;;5022330;28;19920;-34
2022/10/05 04:43:55;;;;;;;;;;;;;;;;;;5021689;28;20352;-34
2022/10/05 04:46:20;;;;;;;;;;;;;;;;;;5024827;28;19913;-34
2022/10/05 04:48:45;;;;;;;;;;;;;;;;;;5023397;28;19917;-34
2022/10/05 04:51:11;;;;;;;;;;;;;;;;;;5021383;28;19917;-35
2022/10/05 04:53:36;;;;;;;;;;;;;;;;;;5023759;28;19920;-33
2022/10/05 04:56:01;;;;;;;;;;;;;;;;;;5023620;28;20167;-34
2022/10/05 04:58:26;;;;;;;;;;;;;;;;;;5016561;28;19946;-34
2022/10/05 05:00:51;;;;;;;;;;;;;;;;;;5023022;28;19913;-34
2022/10/05 05:03:16;;;;;;;;;;;;;;;;;;5022075;28;20352;-34
2022/10/05 05:05:42;;;;;;;;;;;;;;;;;;5038829;28;19998;-35
2022/10/05 05:08:07;;;;;;;;;;;;;;;;;;5024911;28;19921;-34
2022/10/05 05:10:32;;;;;;;;;;;;;;;;;;5023983;28;19917;-34
2022/10/05 05:12:57;;;;;;;;;;;;;;;;;;5023707;28;19917;-34
2022/10/05 05:15:22;;;;;;;;;;;;;;;;;;5024513;28;19920;-34
2022/10/05 05:17:48;;;;;;;;;;;;;;;;;;5022376;28;19920;-34
2022/10/05 05:20:13;;;;;;;;;;;;;;;;;;5019834;28;19917;-34
2022/10/05 05:22:39;;;;;;;;;;;;;;;;;;5022436;28;19920;-35
2022/10/05 05:25:09;;;;;;;;;;;;;;;;;;5021367;28;20136;-34
2022/10/05 05:27:35;;;;;;;;;;;;;;;;;;5023953;28;20148;-34
2022/10/05 05:30:00;;;;;;;;;;;;;;;;;;5023608;28;20022;-34
2022/10/05 05:32:25;;;;;;;;;;;;;;;;;;5020036;28;20379;-33
2022/10/05 05:34:50;;;;;;;;;;;;;;;;;;5023193;28;19913;-34
2022/10/05 05:37:15;;;;;;;;;;;;;;;;;;5024923;28;19963;-33
2022/10/05 05:39:41;;;;;;;;;;;;;;;;;;5024861;28;19936;-32
2022/10/05 05:42:06;;;;;;;;;;;;;;;;;;5024213;28;20018;-32
2022/10/05 05:44:31;;;;;;;;;;;;;;;;;;5024125;28;19917;-32
2022/10/05 05:46:57;;;;;;;;;;;;;;;;;;5021903;28;19917;-32
2022/10/05 05:49:22;;;;;;;;;;;;;;;;;;5023712;28;19925;-32
2022/10/05 05:51:47;;;;;;;;;;;;;;;;;;5022871;28;19917;-33
2022/10/05 05:54:12;;;;;;;;;;;;;;;;;;5024580;28;19917;-32
2022/10/05 05:56:37;;;;;;;;;;;;;;;;;;5022490;28;19920;-32
2022/10/05 05:59:02;;;;;;;;;;;;;;;;;;5020718;28;20405;-32
2022/10/05 06:01:28;;;;;;;;;;;;;;;;;;5023761;28;20147;-33
2022/10/05 06:03:53;;;;;;;;;;;;;;;;;;5023345;28;19918;-32
2022/10/05 06:06:18;;;;;;;;;;;;;;;;;;5025893;28;20363;-32
2022/10/05 06:08:43;;;;;;;;;;;;;;;;;;5024616;28;19913;-32
2022/10/05 06:11:08;;;;;;;;;;;;;;;;;;5026375;28;19917;-32
2022/10/05 06:13:33;;;;;;;;;;;;;;;;;;5024836;28;20362;-32
2022/10/05 06:15:59;;;;;;;;;;;;;;;;;;5024737;28;19967;-32
2022/10/05 06:18:24;;;;;;;;;;;;;;;;;;5021513;28;19944;-32
2022/10/05 06:20:49;;;;;;;;;;;;;;;;;;5025435;28;19924;-32
2022/10/05 06:23:14;;;;;;;;;;;;;;;;;;5027124;28;20264;-32
2022/10/05 06:25:39;;;;;;;;;;;;;;;;;;5027946;28;20298;-32
2022/10/05 06:28:05;;;;;;;;;;;;;;;;;;5026955;28;19960;-32
2022/10/05 06:30:30;;;;;;;;;;;;;;;;;;5027330;28;19971;-32
2022/10/05 06:32:55;;;;;;;;;;;;;;;;;;5024571;28;20442;-32
2022/10/05 06:35:20;;;;;;;;;;;;;;;;;;5019858;28;20051;-33
2022/10/05 06:37:45;;;;;;;;;;;;;;;;;;5023526;28;20339;-32
2022/10/05 06:40:10;;;;;;;;;;;;;;;;;;5026935;28;19917;-32
2022/10/05 06:42:36;;;;;;;;;;;;;;;;;;5026108;28;19921;-32
2022/10/05 06:45:01;;;;;;;;;;;;;;;;;;5026524;28;19921;-32
2022/10/05 06:47:26;;;;;;;;;;;;;;;;;;5022640;28;20399;-32
2022/10/05 06:49:51;;;;;;;;;;;;;;;;;;5024259;28;19921;-32
2022/10/05 06:52:16;;;;;;;;;;;;;;;;;;5018210;28;19936;-32
2022/10/05 06:54:42;;;;;;;;;;;;;;;;;;5014008;28;20114;-32
2022/10/05 06:57:07;;;;;;;;;;;;;;;;;;5014042;28;19928;-32
2022/10/05 06:59:32;;;;;;;;;;;;;;;;;;5027572;28;20003;-33
2022/10/05 07:01:57;;;;;;;;;;;;;;;;;;5023889;28;19917;-32
2022/10/05 07:04:22;;;;;;;;;;;;;;;;;;5021236;28;20032;-32
2022/10/05 07:06:48;;;;;;;;;;;;;;;;;;5022803;28;19913;-32
2022/10/05 07:09:13;;;;;;;;;;;;;;;;;;5024719;28;20003;-32
2022/10/05 07:11:38;;;;;;;;;;;;;;;;;;5022509;28;20306;-33
2022/10/05 07:14:03;;;;;;;;;;;;;;;;;;5024726;28;19917;-32
2022/10/05 07:16:28;;;;;;;;;;;;;;;;;;5025156;28;19921;-33
2022/10/05 07:18:53;;;;;;;;;;;;;;;;;;5023663;28;20186;-33
2022/10/05 07:21:18;;;;;;;;;;;;;;;;;;5025130;28;19917;-32
2022/10/05 07:23:44;;;;;;;;;;;;;;;;;;5022456;28;19921;-32
2022/10/05 07:26:09;;;;;;;;;;;;;;;;;;5025996;28;19913;-33
2022/10/05 07:28:34;;;;;;;;;;;;;;;;;;5023850;28;20004;-32
2022/10/05 07:30:59;;;;;;;;;;;;;;;;;;5025310;28;19924;-32
2022/10/05 07:33:24;;;;;;;;;;;;;;;;;;5025000;28;20006;-32
2022/10/05 07:38:33;;;;;;;;;;;;;;;;;;5026999;28;20051;-32
2022/10/05 07:40:58;;;;;;;;;;;;;;;;;;5022271;28;20600;-32
2022/10/05 07:43:23;;;;;;;;;;;;;;;;;;5025205;28;19959;-32
2022/10/05 07:45:49;;;;;;;;;;;;;;;;;;5026499;28;20328;-32
2022/10/05 07:48:14;;;;;;;;;;;;;;;;;;5025361;28;19913;-32
2022/10/05 07:50:39;;;;;;;;;;;;;;;;;;5024819;28;20232;-32
2022/10/05 07:53:04;;;;;;;;;;;;;;;;;;5026078;28;19917;-32
2022/10/05 07:55:29;;;;;;;;;;;;;;;;;;5025228;28;19991;-32
2022/10/05 07:57:54;;;;;;;;;;;;;;;;;;5023391;28;19921;-32
2022/10/05 08:00:20;;;;;;;;;;;;;;;;;;5025652;28;19921;-32
2022/10/05 08:02:45;;;;;;;;;;;;;;;;;;5023057;28;20010;-33
2022/10/05 08:05:10;;;;;;;;;;;;;;;;;;5021453;28;20299;-32
2022/10/05 08:07:35;;;;;;;;;;;;;;;;;;5024292;28;20497;-32
2022/10/05 08:10:00;;;;;;;;;;;;;;;;;;5025012;28;19928;-32
2022/10/05 08:12:26;;;;;;;;;;;;;;;;;;5022050;28;20024;-32
2022/10/05 08:14:51;;;;;;;;;;;;;;;;;;5024205;28;19967;-33
2022/10/05 08:17:16;;;;;;;;;;;;;;;;;;5025663;28;19917;-33
2022/10/05 08:19:41;;;;;;;;;;;;;;;;;;5024681;28;19917;-33
2022/10/05 08:22:07;;;;;;;;;;;;;;;;;;5023019;28;19967;-32
2022/10/05 08:24:32;;;;;;;;;;;;;;;;;;5025710;28;19917;-33
2022/10/05 08:26:58;;;;;;;;;;;;;;;;;;5027237;28;19952;-33
2022/10/05 08:29:23;;;;;;;;;;;;;;;;;;5023885;28;20629;-33
2022/10/05 08:31:49;;;;;;;;;;;;;;;;;;5023512;28;19928;-33
2022/10/05 08:34:15;;;;;;;;;;;;;;;;;;5016305;28;20345;-33
2022/10/05 08:36:40;;;;;;;;;;;;;;;;;;5018945;28;19925;-33
2022/10/05 08:39:05;;;;;;;;;;;;;;;;;;5017951;28;20346;-33
2022/10/05 08:41:31;;;;;;;;;;;;;;;;;;5019944;28;19921;-32
2022/10/05 08:43:56;;;;;;;;;;;;;;;;;;5021530;28;20732;-32
2022/10/05 08:46:21;;;;;;;;;;;;;;;;;;5017175;28;19917;-32
2022/10/05 08:48:46;;;;;;;;;;;;;;;;;;5020254;28;20373;-33
2022/10/05 08:51:11;;;;;;;;;;;;;;;;;;5017976;28;19913;-32
2022/10/05 08:53:36;;;;;;;;;;;;;;;;;;5021616;28;19917;-33
2022/10/05 08:56:02;;;;;;;;;;;;;;;;;;5020056;28;19949;-33
2022/10/05 08:58:27;;;;;;;;;;;;;;;;;;5021420;28;19924;-33
2022/10/05 09:00:53;;;;;;;;;;;;;;;;;;5023457;28;20286;-33
2022/10/05 09:03:18;;;;;;;;;;;;;;;;;;5021398;28;19959;-32
2022/10/05 09:05:43;;;;;;;;;;;;;;;;;;5020125;28;19943;-33
2022/10/05 09:08:08;;;;;;;;;;;;;;;;;;5021846;28;19967;-33
2022/10/05 09:10:33;;;;;;;;;;;;;;;;;;5022670;28;20252;-32
2022/10/05 09:12:59;;;;;;;;;;;;;;;;;;5023722;28;19921;-33
2022/10/05 09:15:24;;;;;;;;;;;;;;;;;;5021812;28;19948;-33
2022/10/05 09:17:49;;;;;;;;;;;;;;;;;;5023412;28;20003;-33
2022/10/05 09:20:14;;;;;;;;;;;;;;;;;;5023248;28;19917;-33
2022/10/05 09:22:39;;;;;;;;;;;;;;;;;;5023250;28;19921;-33
2022/10/05 09:25:04;;;;;;;;;;;;;;;;;;5014961;28;19939;-33
2022/10/05 09:27:30;;;;;;;;;;;;;;;;;;5015656;28;19928;-33
2022/10/05 09:29:55;;;;;;;;;;;;;;;;;;5022457;28;21633;-33
2022/10/05 09:32:20;;;;;;;;;;;;;;;;;;5021632;28;19921;-34
2022/10/05 09:34:46;;;;;;;;;;;;;;;;;;5019256;28;20011;-34
2022/10/05 09:37:11;;;;;;;;;;;;;;;;;;5019241;28;19924;-33
2022/10/05 09:39:36;;;;;;;;;;;;;;;;;;5021363;28;19924;-33
2022/10/05 09:42:01;;;;;;;;;;;;;;;;;;5023695;28;20279;-33
2022/10/05 09:44:26;;;;;;;;;;;;;;;;;;5020766;28;20696;-33
2022/10/05 09:46:51;;;;;;;;;;;;;;;;;;5018554;28;19917;-33
2022/10/05 09:49:17;;;;;;;;;;;;;;;;;;5019618;28;19913;-33
2022/10/05 09:51:42;;;;;;;;;;;;;;;;;;5022529;28;19928;-33
2022/10/05 09:54:07;;;;;;;;;;;;;;;;;;5019934;28;20023;-33
2022/10/05 09:56:33;;;;;;;;;;;;;;;;;;5022752;28;19924;-33
2022/10/05 09:58:58;;;;;;;;;;;;;;;;;;5020137;28;19960;-33
2022/10/05 10:01:24;;;;;;;;;;;;;;;;;;5022445;28;19952;-33
2022/10/05 10:03:49;;;;;;;;;;;;;;;;;;5020547;28;20017;-33
2022/10/05 10:06:14;;;;;;;;;;;;;;;;;;5020130;28;19913;-33
2022/10/05 10:08:39;;;;;;;;;;;;;;;;;;5022015;28;19913;-33
2022/10/05 10:11:04;;;;;;;;;;;;;;;;;;5019562;28;19960;-33
2022/10/05 10:13:29;;;;;;;;;;;;;;;;;;5019643;28;20409;-33
2022/10/05 10:15:56;;;;;;;;;;;;;;;;;;5019596;28;19967;-33
2022/10/05 10:18:21;;;;;;;;;;;;;;;;;;5020525;28;19964;-34
2022/10/05 10:20:46;;;;;;;;;;;;;;;;;;5018926;28;20556;-33
2022/10/05 10:23:11;;;;;;;;;;;;;;;;;;5020613;28;19921;-33
2022/10/05 10:25:37;;;;;;;;;;;;;;;;;;5021348;28;19913;-33
2022/10/05 10:28:02;;;;;;;;;;;;;;;;;;5021651;28;20383;-33
2022/10/05 10:30:27;;;;;;;;;;;;;;;;;;5019051;28;19921;-33
2022/10/05 10:32:52;;;;;;;;;;;;;;;;;;5020165;28;19966;-33
2022/10/05 10:35:18;;;;;;;;;;;;;;;;;;5016245;28;19921;-33
2022/10/05 10:37:44;;;;;;;;;;;;;;;;;;5021463;28;20383;-33
2022/10/05 10:40:09;;;;;;;;;;;;;;;;;;5016640;28;20426;-33
2022/10/05 10:42:34;;;;;;;;;;;;;;;;;;5018389;28;19963;-34
2022/10/05 10:44:59;;;;;;;;;;;;;;;;;;5013469;28;19929;-34
2022/10/05 10:47:24;;;;;;;;;;;;;;;;;;5016097;28;20210;-34
2022/10/05 10:49:50;;;;;;;;;;;;;;;;;;5011880;28;19963;-34
2022/10/05 10:52:15;;;;;;;;;;;;;;;;;;5017504;28;19917;-34
2022/10/05 10:54:40;;;;;;;;;;;;;;;;;;5019779;28;19967;-34
2022/10/05 10:57:05;;;;;;;;;;;;;;;;;;5024753;28;19970;-34
2022/10/05 10:59:32;;;;;;;;;;;;;;;;;;5024252;28;19944;-34
2022/10/05 11:01:57;;;;;;;;;;;;;;;;;;5021252;28;19924;-34
2022/10/05 11:04:22;;;;;;;;;;;;;;;;;;5023877;28;19913;-34
2022/10/05 11:06:47;;;;;;;;;;;;;;;;;;5022713;28;19971;-34
2022/10/05 11:09:12;;;;;;;;;;;;;;;;;;5024626;28;19925;-34
2022/10/05 11:11:37;;;;;;;;;;;;;;;;;;5023434;28;20052;-34
2022/10/05 11:14:03;;;;;;;;;;;;;;;;;;5023822;28;20011;-34
2022/10/05 11:16:28;;;;;;;;;;;;;;;;;;5018361;28;19943;-34
2022/10/05 11:18:53;;;;;;;;;;;;;;;;;;5023828;28;19917;-34
2022/10/05 11:21:18;;;;;;;;;;;;;;;;;;5022500;28;20081;-34
2022/10/05 11:23:43;;;;;;;;;;;;;;;;;;5022842;28;19921;-34
2022/10/05 11:26:09;;;;;;;;;;;;;;;;;;5022565;28;20260;-34
2022/10/05 11:28:34;;;;;;;;;;;;;;;;;;5023955;28;20613;-34
2022/10/05 11:30:59;;;;;;;;;;;;;;;;;;5023405;28;20439;-34
2022/10/05 11:33:24;;;;;;;;;;;;;;;;;;5023954;28;20362;-34
2022/10/05 11:35:50;;;;;;;;;;;;;;;;;;5023486;28;19925;-34
2022/10/05 11:38:15;;;;;;;;;;;;;;;;;;5023675;28;19983;-34
2022/10/05 11:40:41;;;;;;;;;;;;;;;;;;5024895;28;20072;-34
2022/10/05 11:43:07;;;;;;;;;;;;;;;;;;5022816;28;19913;-34
2022/10/05 11:45:35;;;;;;;;;;;;;;;;;;5023981;28;19913;-34
2022/10/05 11:48:00;;;;;;;;;;;;;;;;;;5021387;28;20355;-34
2022/10/05 11:50:25;;;;;;;;;;;;;;;;;;5023033;28;19920;-34
2022/10/05 11:52:50;;;;;;;;;;;;;;;;;;5021110;28;20436;-34
2022/10/05 11:55:16;;;;;;;;;;;;;;;;;;5023630;28;19917;-34
2022/10/05 11:57:41;;;;;;;;;;;;;;;;;;5024777;28;20273;-34
2022/10/05 12:00:06;;;;;;;;;;;;;;;;;;5021351;28;19949;-34
2022/10/05 12:02:31;;;;;;;;;;;;;;;;;;5022351;28;19939;-35
2022/10/05 12:04:56;;;;;;;;;;;;;;;;;;5018414;28;20063;-34
2022/10/05 12:07:21;;;;;;;;;;;;;;;;;;5022821;28;19917;-34
2022/10/05 12:12:31;;;;;;;;;;;;;;;;;;5022558;28;20334;-34
2022/10/05 12:14:56;;;;;;;;;;;;;;;;;;5018448;28;19917;-34
2022/10/05 12:17:21;;;;;;;;;;;;;;;;;;5018921;28;20635;-34
2022/10/05 12:19:47;;;;;;;;;;;;;;;;;;5021115;28;19927;-34
2022/10/05 12:22:14;;;;;;;;;;;;;;;;;;5021623;28;19951;-34
2022/10/05 12:24:39;;;;;;;;;;;;;;;;;;5015679;28;20310;-34
2022/10/05 12:27:04;;;;;;;;;;;;;;;;;;5018088;28;19917;-34
2022/10/05 12:29:31;;;;;;;;;;;;;;;;;;5022168;28;19917;-34
2022/10/05 12:31:56;;;;;;;;;;;;;;;;;;5020506;28;19928;-34
2022/10/05 12:34:21;;;;;;;;;;;;;;;;;;5019624;28;19917;-34
2022/10/05 12:36:46;;;;;;;;;;;;;;;;;;5019886;28;19927;-34
2022/10/05 12:39:11;;;;;;;;;;;;;;;;;;5015953;28;20554;-34
2022/10/05 12:41:37;;;;;;;;;;;;;;;;;;5017370;28;19917;-34
2022/10/05 12:44:02;;;;;;;;;;;;;;;;;;5019923;28;20040;-34
2022/10/05 12:46:27;;;;;;;;;;;;;;;;;;5019882;28;19922;-34
2022/10/05 12:48:54;;;;;;;;;;;;;;;;;;5018283;28;19917;-34
2022/10/05 12:51:20;;;;;;;;;;;;;;;;;;5019454;28;19966;-34
2022/10/05 12:53:47;;;;;;;;;;;;;;;;;;5018771;28;19916;-34
2022/10/05 12:56:12;;;;;;;;;;;;;;;;;;5019358;28;19956;-34
2022/10/05 12:58:37;;;;;;;;;;;;;;;;;;5020721;28;20824;-34
2022/10/05 13:01:03;;;;;;;;;;;;;;;;;;5017528;28;19928;-34
2022/10/05 13:03:28;;;;;;;;;;;;;;;;;;5017341;28;19974;-34
2022/10/05 13:05:53;;;;;;;;;;;;;;;;;;5019512;28;19917;-34
2022/10/05 13:08:18;;;;;;;;;;;;;;;;;;5018336;28;19921;-34
2022/10/05 13:10:43;;;;;;;;;;;;;;;;;;5021046;28;19929;-34
2022/10/05 13:13:08;;;;;;;;;;;;;;;;;;5018855;28;19968;-34
2022/10/05 13:15:34;;;;;;;;;;;;;;;;;;5020907;28;19917;-34
2022/10/05 13:17:59;;;;;;;;;;;;;;;;;;5019350;28;20372;-34
2022/10/05 13:20:26;;;;;;;;;;;;;;;;;;5019227;28;19952;-34
2022/10/05 13:22:51;;;;;;;;;;;;;;;;;;5019583;28;19917;-34
2022/10/05 13:25:17;;;;;;;;;;;;;;;;;;5016769;28;19924;-34
2022/10/05 13:27:42;;;;;;;;;;;;;;;;;;5017416;28;19970;-34
2022/10/05 13:30:07;;;;;;;;;;;;;;;;;;5017624;28;20348;-34
2022/10/05 13:32:32;;;;;;;;;;;;;;;;;;5015311;28;19928;-34
2022/10/05 13:34:57;;;;;;;;;;;;;;;;;;5018055;28;19917;-34
2022/10/05 13:37:22;;;;;;;;;;;;;;;;;;5014632;28;20406;-34
2022/10/05 13:39:48;;;;;;;;;;;;;;;;;;5017298;28;19917;-34
2022/10/05 13:42:13;;;;;;;;;;;;;;;;;;5014881;28;20169;-34
2022/10/05 13:44:38;;;;;;;;;;;;;;;;;;5017864;28;19979;-34
2022/10/05 13:47:03;;;;;;;;;;;;;;;;;;5018236;28;20355;-34
2022/10/05 13:49:28;;;;;;;;;;;;;;;;;;5020651;28;19916;-34
2022/10/05 13:51:53;;;;;;;;;;;;;;;;;;5017104;28;19921;-34
2022/10/05 13:54:19;;;;;;;;;;;;;;;;;;5019983;28;19917;-34
2022/10/05 13:56:44;;;;;;;;;;;;;;;;;;5017594;28;20080;-34
2022/10/05 13:59:10;;;;;;;;;;;;;;;;;;5016776;28;19921;-34
2022/10/05 14:01:35;;;;;;;;;;;;;;;;;;5015487;28;20705;-34
2022/10/05 14:04:01;;;;;;;;;;;;;;;;;;5014597;28;19928;-34
2022/10/05 14:06:28;;;;;;;;;;;;;;;;;;5019424;28;19948;-34
2022/10/05 14:08:54;;;;;;;;;;;;;;;;;;5017859;28;20385;-34
2022/10/05 14:11:19;;;;;;;;;;;;;;;;;;5014879;28;19913;-34
2022/10/05 14:13:45;;;;;;;;;;;;;;;;;;5018748;28;20016;-34
2022/10/05 14:16:10;;;;;;;;;;;;;;;;;;5014137;28;19920;-34
2022/10/05 14:18:35;;;;;;;;;;;;;;;;;;5017766;28;19917;-34
2022/10/05 14:21:00;;;;;;;;;;;;;;;;;;5019564;28;19921;-34
2022/10/05 14:23:26;;;;;;;;;;;;;;;;;;5019781;28;19948;-34
2022/10/05 14:25:54;;;;;;;;;;;;;;;;;;5017782;28;19922;-34
2022/10/05 14:28:19;;;;;;;;;;;;;;;;;;5022509;28;20040;-34
2022/10/05 14:30:44;;;;;;;;;;;;;;;;;;5020688;28;19967;-34
2022/10/05 14:33:09;;;;;;;;;;;;;;;;;;5023093;28;20240;-34
2022/10/05 14:35:35;;;;;;;;;;;;;;;;;;5023160;28;19982;-34
2022/10/05 14:38:01;;;;;;;;;;;;;;;;;;5020880;28;20324;-34
2022/10/05 14:40:26;;;;;;;;;;;;;;;;;;5021393;28;20003;-34
2022/10/05 14:42:51;;;;;;;;;;;;;;;;;;5020219;28;19917;-34
2022/10/05 14:45:16;;;;;;;;;;;;;;;;;;5020892;28;19925;-34
2022/10/05 14:47:41;;;;;;;;;;;;;;;;;;5021881;28;19988;-34
2022/10/05 14:50:12;;;;;;;;;;;;;;;;;;5021794;28;19964;-34
2022/10/05 14:52:38;;;;;;;;;;;;;;;;;;5022942;28;19928;-34
2022/10/05 14:55:03;;;;;;;;;;;;;;;;;;5020518;28;19921;-34
2022/10/05 14:57:30;;;;;;;;;;;;;;;;;;5023707;28;19922;-34
2022/10/05 14:59:56;;;;;;;;;;;;;;;;;;5022634;28;19928;-34
2022/10/05 15:02:22;;;;;;;;;;;;;;;;;;5021031;28;20397;-34
2022/10/05 15:04:48;;;;;;;;;;;;;;;;;;5020460;28;19921;-34
2022/10/05 15:07:13;;;;;;;;;;;;;;;;;;5019316;28;19952;-34
2022/10/05 15:09:39;;;;;;;;;;;;;;;;;;5019362;28;20005;-34
2022/10/05 15:12:04;;;;;;;;;;;;;;;;;;5017949;28;19921;-34
2022/10/05 15:14:30;;;;;;;;;;;;;;;;;;5016139;28;19967;-34
2022/10/05 15:16:55;;;;;;;;;;;;;;;;;;5016092;28;19916;-34
2022/10/05 15:19:20;;;;;;;;;;;;;;;;;;5019921;28;19924;-34
2022/10/05 15:21:46;;;;;;;;;;;;;;;;;;5023272;28;20008;-34
2022/10/05 15:24:12;;;;;;;;;;;;;;;;;;5022325;28;19917;-34
2022/10/05 15:26:37;;;;;;;;;;;;;;;;;;5021232;28;20016;-34
2022/10/05 15:29:02;;;;;;;;;;;;;;;;;;5021782;28;20413;-34
2022/10/05 15:31:28;;;;;;;;;;;;;;;;;;5022141;28;20030;-34
2022/10/05 15:33:53;;;;;;;;;;;;;;;;;;5020622;28;20283;-34
2022/10/05 15:36:19;;;;;;;;;;;;;;;;;;5022010;28;20006;-34
2022/10/05 15:38:44;;;;;;;;;;;;;;;;;;5021808;28;20394;-34
2022/10/05 15:41:09;;;;;;;;;;;;;;;;;;5019100;28;19974;-34
2022/10/05 15:43:34;;;;;;;;;;;;;;;;;;5018899;28;19928;-34
2022/10/05 15:46:00;;;;;;;;;;;;;;;;;;5018124;28;20028;-34
2022/10/05 15:48:27;;;;;;;;;;;;;;;;;;5021444;28;19928;-34
2022/10/05 15:50:56;;;;;;;;;;;;;;;;;;5022128;28;19917;-34
2022/10/05 15:53:21;;;;;;;;;;;;;;;;;;5020638;28;19921;-34
2022/10/05 15:55:46;;;;;;;;;;;;;;;;;;5016004;28;20299;-34
2022/10/05 15:58:11;;;;;;;;;;;;;;;;;;5022976;28;19959;-34
2022/10/05 16:00:36;;;;;;;;;;;;;;;;;;5020992;28;20211;-34
2022/10/05 16:03:01;;;;;;;;;;;;;;;;;;5019896;28;19998;-34
2022/10/05 16:10:55;;;;;;;;;;;;;;;;;;5020542;28;19963;-34
2022/10/05 16:13:20;;;;;;;;;;;;;;;;;;5020698;28;20023;-34
2022/10/05 16:15:48;;;;;;;;;;;;;;;;;;5021252;28;19917;-34
2022/10/05 16:18:14;;;;;;;;;;;;;;;;;;5023759;28;20432;-34
2022/10/05 16:20:39;;;;;;;;;;;;;;;;;;5020854;28;19921;-34
2022/10/05 16:23:05;;;;;;;;;;;;;;;;;;5015547;28;19924;-34
2022/10/05 16:25:30;;;;;;;;;;;;;;;;;;5016509;28;19983;-34
2022/10/05 16:27:55;;;;;;;;;;;;;;;;;;5018606;28;19917;-34
2022/10/05 16:30:20;;;;;;;;;;;;;;;;;;5018562;28;20198;-34
2022/10/05 16:32:48;;;;;;;;;;;;;;;;;;5017736;28;19925;-34
2022/10/05 16:35:14;;;;;;;;;;;;;;;;;;5018207;28;19999;-34
2022/10/05 16:37:40;;;;;;;;;;;;;;;;;;5017839;28;20139;-34
2022/10/05 16:40:05;;;;;;;;;;;;;;;;;;5016607;28;19917;-34
2022/10/05 16:42:31;;;;;;;;;;;;;;;;;;5014197;28;19924;-34